Time;durP1;ratioP1;P1;durP2;ratioP2;P2;SDS_P1;SDS_P2;PMS_P1;PMS_P2;Temp;Humidity;BMP_temperature;BMP_pressure;BME280_temperature;BME280_humidity;BME280_pressure;Samples;Min_cycle;Max_cycle;Signal;HPM_P1;HPM_P2
2021/10/02 00:46:25;;;;;;;14.55;7.30;;;;;;;11.85;94.45;101108.66;5034258;28;20043;-41
2021/10/02 00:48:51;;;;;;;16.38;7.45;;;;;;;11.84;94.55;101118.59;5034901;28;20104;-41
2021/10/02 00:51:16;;;;;;;22.95;7.47;;;;;;;11.83;94.48;101125.00;5034615;28;20473;-41
2021/10/02 00:53:42;;;;;;;13.13;7.22;;;;;;;11.80;94.42;101128.09;5033347;28;20079;-42
2021/10/02 00:56:07;;;;;;;26.77;12.48;;;;;;;11.79;94.54;101120.16;5034119;28;20033;-42
2021/10/02 00:58:33;;;;;;;20.33;12.20;;;;;;;11.81;94.62;101118.97;5033089;28;20021;-41
2021/10/02 01:01:00;;;;;;;22.85;12.50;;;;;;;11.83;94.71;101116.09;5034384;28;20029;-40
2021/10/02 01:03:50;;;;;;;21.77;11.65;;;;;;;11.84;94.82;101120.47;5032591;28;20151;-41
2021/10/02 01:06:27;;;;;;;20.75;11.23;;;;;;;11.86;94.65;101121.16;5032460;28;20045;-41
2021/10/02 01:09:11;;;;;;;20.50;11.43;;;;;;;11.88;94.79;101121.81;5034606;28;20028;-40
2021/10/02 01:11:49;;;;;;;18.63;11.35;;;;;;;11.90;94.82;101122.47;5033142;28;20030;-41
2021/10/02 01:14:31;;;;;;;18.25;10.20;;;;;;;11.93;94.76;101107.75;5033019;28;20040;-42
2021/10/02 01:17:00;;;;;;;21.55;11.18;;;;;;;11.92;94.60;101104.22;5033035;28;20464;-41
2021/10/02 01:19:37;;;;;;;17.52;10.68;;;;;;;11.93;94.60;101100.53;5033972;28;20088;-40
2021/10/02 01:22:24;;;;;;;20.77;10.55;;;;;;;11.95;94.61;101100.31;5033359;28;20057;-41
2021/10/02 01:25:06;;;;;;;17.58;10.93;;;;;;;11.94;94.63;101094.09;5032920;28;20021;-40
2021/10/02 01:27:55;;;;;;;23.08;11.07;;;;;;;11.95;94.78;101087.66;5032241;28;20032;-41
2021/10/02 01:30:45;;;;;;;20.42;10.65;;;;;;;11.95;94.79;101082.28;5032484;28;20029;-41
2021/10/02 01:33:29;;;;;;;17.25;10.60;;;;;;;11.95;94.77;101081.44;5033862;28;20029;-41
2021/10/02 01:47:16;;;;;;;17.40;10.15;;;;;;;11.89;94.40;101077.63;5032926;28;20091;-41
2021/10/02 01:49:44;;;;;;;23.88;11.20;;;;;;;11.86;94.33;101078.00;5033226;28;20037;-42
2021/10/02 01:52:10;;;;;;;20.02;11.23;;;;;;;11.83;94.37;101075.66;5031705;28;20025;-42
2021/10/02 01:54:36;;;;;;;17.10;9.80;;;;;;;11.81;94.26;101069.59;5032309;28;20037;-40
2021/10/02 01:57:03;;;;;;;24.25;11.75;;;;;;;11.77;94.45;101063.75;5032273;28;20484;-41
2021/10/02 01:59:30;;;;;;;20.00;10.77;;;;;;;11.77;94.31;101070.97;5032203;28;20029;-41
2021/10/02 02:01:55;;;;;;;22.17;12.45;;;;;;;11.74;94.33;101079.44;5032061;28;20033;-43
2021/10/02 02:04:22;;;;;;;19.00;11.73;;;;;;;11.72;94.50;101066.16;5032387;28;20025;-42
2021/10/02 02:06:48;;;;;;;26.02;12.88;;;;;;;11.72;94.58;101063.44;5032046;28;20417;-42
2021/10/02 02:09:15;;;;;;;21.13;12.05;;;;;;;11.69;94.59;101073.75;5031884;28;20041;-42
2021/10/02 02:11:41;;;;;;;22.52;12.15;;;;;;;11.65;94.49;101068.72;5031387;28;20029;-43
2021/10/02 02:14:10;;;;;;;21.75;12.45;;;;;;;11.61;94.62;101064.75;5031978;28;20017;-41
2021/10/02 02:16:37;;;;;;;21.00;11.40;;;;;;;11.56;94.40;101077.94;5031851;28;20112;-41
2021/10/02 02:19:03;;;;;;;23.03;12.43;;;;;;;11.51;94.45;101068.72;5031770;28;20469;-40
2021/10/02 02:21:29;;;;;;;18.08;10.88;;;;;;;11.48;94.30;101061.84;5031337;28;20091;-42
2021/10/02 02:23:55;;;;;;;23.63;11.05;;;;;;;11.44;93.95;101057.81;5031916;28;20029;-41
2021/10/02 02:26:21;;;;;;;23.90;11.23;;;;;;;11.38;93.79;101054.00;5031569;28;20128;-41
2021/10/02 02:28:46;;;;;;;22.17;12.18;;;;;;;11.32;93.71;101052.03;5031633;28;20156;-42
2021/10/02 02:31:12;;;;;;;15.73;11.48;;;;;;;11.26;93.73;101041.97;5031171;28;20029;-41
2021/10/02 02:33:38;;;;;;;19.83;11.48;;;;;;;11.21;93.55;101038.97;5032858;28;20029;-41
2021/10/02 02:36:04;;;;;;;23.20;13.55;;;;;;;11.19;93.79;101049.94;5032826;28;20104;-42
2021/10/02 02:38:30;;;;;;;22.88;12.85;;;;;;;11.16;93.86;101044.94;5032893;28;20036;-41
2021/10/02 02:40:56;;;;;;;22.92;13.15;;;;;;;11.15;94.09;101045.94;5043702;28;20025;-42
2021/10/02 02:43:22;;;;;;;33.03;14.55;;;;;;;11.15;94.53;101040.53;5052680;28;20033;-41
2021/10/02 02:45:52;;;;;;;25.08;14.25;;;;;;;11.16;94.56;101031.47;5050218;28;20515;-41
2021/10/02 02:48:26;;;;;;;22.45;13.02;;;;;;;11.13;94.57;101028.28;5038786;28;20037;-42
2021/10/02 02:50:55;;;;;;;18.10;10.43;;;;;;;11.18;94.47;101017.78;5030966;28;20392;-41
2021/10/02 02:53:59;;;;;;;17.20;9.63;;;;;;;11.14;94.09;101025.41;5031654;28;20029;-42
2021/10/02 02:56:43;;;;;;;27.08;12.32;;;;;;;11.11;93.91;101030.31;5031114;28;20116;-41
2021/10/02 02:59:18;;;;;;;23.35;13.73;;;;;;;11.03;94.01;101031.19;5032668;28;20059;-41
2021/10/02 03:01:46;;;;;;;21.80;14.05;;;;;;;10.95;94.05;101024.06;5030262;28;20775;-42
2021/10/02 03:04:14;;;;;;;23.85;13.23;;;;;;;10.92;93.95;101032.47;5031506;28;20037;-41
2021/10/02 03:06:44;;;;;;;20.75;12.55;;;;;;;10.88;94.11;101036.56;5031041;28;20053;-41
2021/10/02 03:09:11;;;;;;;26.42;12.40;;;;;;;10.82;93.95;101025.66;5030920;28;20492;-41
2021/10/02 03:11:36;;;;;;;20.17;12.70;;;;;;;10.77;93.42;101024.34;5032089;28;20068;-41
2021/10/02 03:14:03;;;;;;;28.90;14.43;;;;;;;10.72;93.68;101026.72;5032511;28;20083;-42
2021/10/02 03:16:29;;;;;;;21.23;12.30;;;;;;;10.67;93.52;101026.44;5031120;28;20033;-42
2021/10/02 03:19:05;;;;;;;17.85;12.40;;;;;;;10.63;93.49;101030.47;5031274;28;20021;-42
2021/10/02 03:21:31;;;;;;;20.13;12.70;;;;;;;10.61;93.64;101031.66;5030848;28;20032;-40
2021/10/02 03:23:57;;;;;;;19.38;10.90;;;;;;;10.57;93.64;101033.06;5031216;28;20038;-41
2021/10/02 03:26:23;;;;;;;27.77;13.57;;;;;;;10.59;93.76;101031.88;5030599;28;20033;-41
2021/10/02 03:28:49;;;;;;;24.42;13.48;;;;;;;10.57;94.11;101028.50;5031953;28;20027;-41
2021/10/02 03:31:16;;;;;;;22.77;12.77;;;;;;;10.54;93.77;101026.16;5031631;28;20030;-40
2021/10/02 03:33:42;;;;;;;17.73;12.77;;;;;;;10.52;93.96;101028.19;5010927;28;20089;-41
2021/10/02 03:36:08;;;;;;;18.85;13.65;;;;;;;10.53;94.24;101022.66;5018040;28;20108;-40
2021/10/02 03:38:37;;;;;;;18.48;13.02;;;;;;;10.49;94.29;101033.94;5032121;28;20029;-41
2021/10/02 03:41:03;;;;;;;20.08;12.00;;;;;;;10.45;94.15;101040.66;5031644;28;20079;-42
2021/10/02 03:43:34;;;;;;;21.63;13.90;;;;;;;10.43;94.20;101038.19;5032062;28;20032;-42
2021/10/02 03:46:00;;;;;;;23.45;13.13;;;;;;;10.41;94.37;101033.97;5032062;28;20457;-41
2021/10/02 03:48:25;;;;;;;30.55;13.18;;;;;;;10.39;94.45;101036.84;5032101;28;20113;-42
2021/10/02 03:50:51;;;;;;;21.92;12.80;;;;;;;10.37;94.40;101013.81;5031741;28;20401;-41
2021/10/02 03:53:16;;;;;;;21.42;11.18;;;;;;;10.34;94.46;101023.06;5032220;28;20511;-41
2021/10/02 03:55:42;;;;;;;19.08;11.88;;;;;;;10.31;93.95;101021.56;5032039;28;20026;-42
2021/10/02 03:58:07;;;;;;;16.77;11.15;;;;;;;10.29;94.19;101022.75;5031938;28;20047;-41
2021/10/02 04:00:32;;;;;;;16.60;10.95;;;;;;;10.28;94.07;101023.78;5031759;28;20024;-41
2021/10/02 04:02:58;;;;;;;16.55;11.50;;;;;;;10.27;94.32;101017.56;5031627;28;20033;-41
2021/10/02 04:05:23;;;;;;;19.02;9.98;;;;;;;10.27;94.19;101025.66;5031371;28;20392;-40
2021/10/02 04:07:48;;;;;;;18.63;9.88;;;;;;;10.25;94.33;101019.56;5032178;28;20431;-41
2021/10/02 04:10:14;;;;;;;18.25;10.30;;;;;;;10.27;94.45;101025.66;5031514;28;20064;-42
2021/10/02 04:12:39;;;;;;;15.07;9.98;;;;;;;10.26;94.56;101021.22;5031454;28;20033;-41
2021/10/02 04:15:05;;;;;;;16.48;9.68;;;;;;;10.26;94.28;101026.59;5033164;28;20358;-41
2021/10/02 04:17:30;;;;;;;15.80;9.77;;;;;;;10.25;94.36;101021.41;5035116;28;20496;-41
2021/10/02 04:19:56;;;;;;;13.80;9.70;;;;;;;10.25;94.51;101024.09;5035360;28;20452;-42
2021/10/02 04:22:21;;;;;;;15.43;9.30;;;;;;;10.24;94.31;101011.66;5033739;28;20388;-41
2021/10/02 04:24:48;;;;;;;15.15;8.32;;;;;;;10.21;94.30;101006.63;5035201;28;20384;-41
2021/10/02 04:27:13;;;;;;;13.10;8.52;;;;;;;10.21;94.32;101004.78;5034733;28;20068;-41
2021/10/02 04:29:38;;;;;;;18.85;9.35;;;;;;;10.19;94.42;101008.66;5033717;28;20065;-40
2021/10/02 04:32:04;;;;;;;17.60;9.25;;;;;;;10.20;94.26;101015.72;5034098;28;20021;-40
2021/10/02 04:34:29;;;;;;;22.20;9.60;;;;;;;10.23;94.35;101013.50;5033197;28;20071;-41
2021/10/02 04:36:55;;;;;;;20.92;9.95;;;;;;;10.24;94.56;101012.53;5033042;28;20049;-41
2021/10/02 04:39:21;;;;;;;19.23;8.70;;;;;;;10.25;94.61;101006.13;5031603;28;20083;-40
2021/10/02 04:41:46;;;;;;;18.85;9.18;;;;;;;10.28;94.47;100997.72;5031689;28;20037;-40
2021/10/02 04:44:11;;;;;;;15.00;8.98;;;;;;;10.30;94.33;100994.88;5031934;28;20873;-41
2021/10/02 04:46:37;;;;;;;13.63;8.65;;;;;;;10.33;94.46;101000.72;5031311;28;20032;-41
2021/10/02 04:49:02;;;;;;;16.85;9.35;;;;;;;10.36;94.40;100999.53;5029423;28;20037;-40
2021/10/02 04:51:28;;;;;;;22.85;9.80;;;;;;;10.42;94.55;101006.06;5022728;28;20065;-38
2021/10/02 04:53:55;;;;;;;24.23;10.02;;;;;;;10.40;94.31;101002.69;5019418;28;20049;-41
2021/10/02 04:56:21;;;;;;;27.25;10.32;;;;;;;10.45;94.52;100997.63;5030852;28;20026;-40
2021/10/02 04:58:46;;;;;;;21.00;9.85;;;;;;;10.53;94.52;101006.50;5038875;28;20017;-40
2021/10/02 05:01:12;;;;;;;22.98;9.88;;;;;;;10.56;94.46;100999.94;5041706;28;20476;-40
2021/10/02 05:03:38;;;;;;;20.38;10.25;;;;;;;10.60;94.40;100995.84;5030533;28;20096;-41
2021/10/02 05:06:04;;;;;;;22.90;10.00;;;;;;;10.62;94.27;100998.38;5031386;28;20232;-41
2021/10/02 05:08:31;;;;;;;20.58;9.63;;;;;;;10.63;94.41;101003.56;5030779;28;20025;-42
2021/10/02 05:10:56;;;;;;;17.42;10.18;;;;;;;10.62;94.22;101007.28;5030831;28;20153;-41
2021/10/02 05:13:21;;;;;;;20.13;10.55;;;;;;;10.60;93.93;101001.22;5030189;28;20231;-40
2021/10/02 05:15:47;;;;;;;27.83;10.38;;;;;;;10.60;93.97;101005.78;5031118;28;20609;-41
2021/10/02 05:18:12;;;;;;;21.13;11.43;;;;;;;10.60;94.04;101000.41;5037607;28;20533;-41
2021/10/02 05:20:37;;;;;;;24.30;11.52;;;;;;;10.60;94.29;100993.16;5030953;28;20057;-40
2021/10/02 05:23:03;;;;;;;34.55;12.75;;;;;;;10.65;94.31;100992.63;5039995;28;20036;-40
2021/10/02 05:25:28;;;;;;;26.88;13.50;;;;;;;10.68;94.36;101011.09;5051232;28;20029;-41
2021/10/02 05:27:55;;;;;;;36.28;13.90;;;;;;;10.72;94.45;101010.59;5050850;28;20025;-43
2021/10/02 05:30:20;;;;;;;31.45;13.93;;;;;;;10.76;94.62;101006.50;5032674;28;20035;-41
2021/10/02 05:32:45;;;;;;;27.77;15.45;;;;;;;10.83;94.55;101005.81;5050892;28;20029;-42
2021/10/02 05:35:11;;;;;;;34.78;15.07;;;;;;;10.85;94.58;101001.03;5039489;28;20073;-41
2021/10/02 05:37:36;;;;;;;31.30;13.40;;;;;;;10.89;94.63;100991.59;5028314;28;20029;-41
2021/10/02 05:40:02;;;;;;;31.48;14.90;;;;;;;10.93;94.46;100984.84;5028427;28;20565;-41
2021/10/02 05:42:28;;;;;;;29.30;13.40;;;;;;;10.97;94.43;100989.69;5029527;28;20083;-41
2021/10/02 05:44:53;;;;;;;33.00;14.73;;;;;;;10.97;94.47;100994.22;5027694;28;20021;-41
2021/10/02 05:47:19;;;;;;;32.85;15.50;;;;;;;10.99;94.52;100994.91;5030290;28;20340;-40
2021/10/02 05:49:44;;;;;;;37.38;17.58;;;;;;;11.01;94.51;100994.72;5042620;28;20025;-40
2021/10/02 05:52:10;;;;;;;33.08;15.23;;;;;;;11.03;94.56;100998.88;5030374;28;20102;-40
2021/10/02 05:54:36;;;;;;;32.88;15.00;;;;;;;11.04;94.35;100997.06;5033440;28;20575;-40
2021/10/02 05:57:02;;;;;;;30.50;13.07;;;;;;;11.09;94.48;101000.03;5030324;28;20402;-40
2021/10/02 05:59:27;;;;;;;26.02;12.35;;;;;;;11.09;93.75;100990.09;5030373;28;20491;-41
2021/10/02 06:01:53;;;;;;;26.70;13.13;;;;;;;11.07;93.40;100997.50;5028907;28;20036;-41
2021/10/02 06:04:18;;;;;;;34.15;12.25;;;;;;;11.10;93.44;101002.53;5030116;28;20081;-40
2021/10/02 06:06:43;;;;;;;30.35;13.00;;;;;;;11.09;93.33;101000.88;5029724;28;20091;-41
2021/10/02 06:09:09;;;;;;;24.90;12.25;;;;;;;11.15;93.30;101000.13;5029625;28;20025;-40
2021/10/02 06:11:34;;;;;;;26.70;12.18;;;;;;;11.11;93.09;101009.63;5028637;28;20091;-40
2021/10/02 06:13:59;;;;;;;27.50;11.23;;;;;;;11.07;92.88;101000.22;5030181;28;20032;-41
2021/10/02 06:16:25;;;;;;;20.90;9.65;;;;;;;11.12;92.55;101005.88;5028424;28;20395;-40
2021/10/02 06:18:50;;;;;;;18.70;10.05;;;;;;;11.16;92.13;100993.75;5030090;28;20484;-41
2021/10/02 06:21:15;;;;;;;15.93;8.85;;;;;;;11.11;91.79;100993.44;5028855;28;20553;-42
2021/10/02 06:23:42;;;;;;;14.32;7.63;;;;;;;11.03;91.70;100996.19;5030156;28;20516;-40
2021/10/02 06:26:07;;;;;;;34.95;7.75;;;;;;;11.03;91.00;100993.50;5030025;28;20029;-40
2021/10/02 06:28:32;;;;;;;22.73;7.55;;;;;;;10.98;90.69;100988.69;5029643;28;20056;-41
2021/10/02 06:30:58;;;;;;;16.58;6.45;;;;;;;11.01;90.55;100992.03;5029645;28;20033;-41
2021/10/02 06:33:23;;;;;;;19.90;5.80;;;;;;;11.00;89.14;101001.94;5030002;28;20037;-41
2021/10/02 06:35:49;;;;;;;17.85;6.07;;;;;;;11.02;89.54;100993.69;5028343;28;20439;-42
2021/10/02 06:38:15;;;;;;;13.40;5.47;;;;;;;11.11;89.23;100997.97;5029894;28;20514;-41
2021/10/02 06:40:42;;;;;;;14.15;5.20;;;;;;;11.15;88.35;100989.38;5029845;28;20029;-41
2021/10/02 06:43:08;;;;;;;10.07;4.45;;;;;;;11.19;87.42;100990.69;5029830;28;20385;-40
2021/10/02 06:45:33;;;;;;;13.73;4.50;;;;;;;11.24;87.78;100986.59;5028234;28;20040;-41
2021/10/02 06:47:58;;;;;;;20.50;4.40;;;;;;;11.23;86.71;100980.38;5030049;28;20032;-40
2021/10/02 06:50:24;;;;;;;21.45;4.63;;;;;;;11.27;86.24;100975.44;5029643;28;20026;-41
2021/10/02 06:52:49;;;;;;;14.82;4.85;;;;;;;11.33;86.84;100972.03;5029721;28;20043;-41
2021/10/02 06:55:15;;;;;;;11.23;3.60;;;;;;;11.31;85.99;100968.69;5029107;28;20437;-42
2021/10/02 06:57:40;;;;;;;16.05;4.75;;;;;;;11.33;86.54;100977.41;5029523;28;20044;-42
2021/10/02 07:00:06;;;;;;;18.30;4.20;;;;;;;11.35;86.33;100970.00;5031250;28;20049;-41
2021/10/02 07:02:31;;;;;;;13.15;4.22;;;;;;;11.32;86.04;100973.03;5030886;28;20423;-42
2021/10/02 07:04:57;;;;;;;15.50;4.35;;;;;;;11.30;86.43;100975.09;5029456;28;20075;-41
2021/10/02 07:07:22;;;;;;;14.95;3.85;;;;;;;11.30;86.34;100970.53;5030901;28;20131;-42
2021/10/02 07:09:48;;;;;;;13.82;3.40;;;;;;;11.26;85.49;100969.22;5032293;28;20057;-40
2021/10/02 07:12:13;;;;;;;12.68;4.03;;;;;;;11.26;85.14;100963.00;5031079;28;20025;-41
2021/10/02 07:14:39;;;;;;;11.52;3.47;;;;;;;11.28;85.08;100960.97;5032301;28;20025;-42
2021/10/02 07:17:05;;;;;;;10.55;3.50;;;;;;;11.36;85.15;100958.19;5032448;28;20112;-41
2021/10/02 07:19:30;;;;;;;10.63;4.00;;;;;;;11.45;84.71;100959.75;5030773;28;20038;-41
2021/10/02 07:21:55;;;;;;;14.00;3.50;;;;;;;11.61;84.41;100973.09;5032305;28;20026;-41
2021/10/02 07:24:21;;;;;;;11.40;4.00;;;;;;;11.77;83.41;100949.63;5032442;28;20060;-41
2021/10/02 07:26:46;;;;;;;12.07;3.72;;;;;;;11.91;82.66;100950.69;5032220;28;20029;-41
2021/10/02 07:29:12;;;;;;;11.90;3.30;;;;;;;12.13;81.87;100954.28;5030844;28;20041;-41
2021/10/02 07:31:37;;;;;;;10.05;3.88;;;;;;;12.35;80.95;100950.59;5031979;28;20037;-41
2021/10/02 07:34:03;;;;;;;13.50;3.88;;;;;;;12.61;80.35;100946.47;5032086;28;20045;-40
2021/10/02 07:36:29;;;;;;;13.30;3.70;;;;;;;12.58;79.52;100930.66;5030652;28;20443;-42
2021/10/02 07:38:55;;;;;;;13.80;3.92;;;;;;;12.88;78.79;100928.69;5030548;28;20361;-41
2021/10/02 07:41:21;;;;;;;13.90;3.80;;;;;;;13.10;77.89;100945.66;5032260;28;20033;-42
2021/10/02 07:43:52;;;;;;;16.77;4.00;;;;;;;12.81;78.31;100947.50;5032178;28;20025;-42
2021/10/02 07:46:18;;;;;;;17.25;3.78;;;;;;;12.63;79.44;100957.94;5032141;28;20025;-42
2021/10/02 07:48:44;;;;;;;11.32;4.15;;;;;;;12.73;79.21;100963.84;5030988;28;20030;-41
2021/10/02 07:51:09;;;;;;;15.68;4.38;;;;;;;12.75;78.62;100967.19;5035823;28;20108;-42
2021/10/02 07:53:35;;;;;;;10.15;3.55;;;;;;;12.63;78.31;100972.25;5035799;28;20021;-42
2021/10/02 07:56:01;;;;;;;13.80;4.43;;;;;;;12.75;78.48;100959.09;5036085;28;20455;-41
2021/10/02 07:58:27;;;;;;;12.02;2.90;;;;;;;12.94;78.16;100953.03;5035556;28;20473;-43
2021/10/02 08:00:56;;;;;;;10.60;3.45;;;;;;;12.83;78.05;100950.84;5035987;28;20065;-41
2021/10/02 08:03:22;;;;;;;13.50;4.38;;;;;;;12.89;78.33;100952.78;5035573;28;20484;-41
2021/10/02 08:05:48;;;;;;;11.00;3.75;;;;;;;12.89;78.35;100949.25;5035341;28;20087;-41
2021/10/02 08:08:18;;;;;;;10.55;4.25;;;;;;;12.76;77.24;100933.75;5035396;28;20033;-42
2021/10/02 08:10:44;;;;;;;9.93;3.67;;;;;;;12.90;76.93;100926.59;5035591;28;20030;-42
2021/10/02 08:13:12;;;;;;;10.23;3.42;;;;;;;13.35;75.53;100924.47;5035553;28;20536;-42
2021/10/02 08:15:38;;;;;;;;;;;;;;;13.67;74.36;100930.28;5035802;28;20388;-41
2021/10/02 08:18:04;;;;;;;9.75;3.15;;;;;;;13.95;72.78;100920.19;5035170;28;19909;-42
2021/10/02 08:20:31;;;;;;;12.18;3.47;;;;;;;13.78;72.28;100927.00;5035359;28;20026;-42
2021/10/02 08:22:57;;;;;;;9.77;3.30;;;;;;;13.98;72.84;100927.06;5032740;28;20512;-41
2021/10/02 08:25:24;;;;;;;12.90;3.00;;;;;;;13.96;70.17;100921.03;5034831;28;20026;-41
2021/10/02 08:27:50;;;;;;;8.55;3.20;;;;;;;14.11;70.57;100915.47;5033576;28;20026;-41
2021/10/02 08:30:16;;;;;;;11.02;3.03;;;;;;;14.20;69.99;100914.25;5035321;28;20079;-42
2021/10/02 08:32:42;;;;;;;9.18;3.28;;;;;;;14.64;68.29;100912.88;5035187;28;20029;-42
2021/10/02 08:35:08;;;;;;;18.95;3.20;;;;;;;15.82;65.76;100912.94;5034628;28;20025;-42
2021/10/02 08:37:34;;;;;;;11.65;2.90;;;;;;;16.83;61.91;100914.91;5035225;28;20094;-41
2021/10/02 08:39:59;;;;;;;9.82;2.90;;;;;;;16.81;62.29;100922.44;5033503;28;20029;-42
2021/10/02 08:42:25;;;;;;;8.63;2.60;;;;;;;17.00;61.25;100911.63;5035097;28;20026;-43
2021/10/02 08:44:52;;;;;;;8.35;2.30;;;;;;;16.62;60.84;100912.53;5035148;28;20048;-41
2021/10/02 08:47:21;;;;;;;12.32;2.92;;;;;;;16.95;59.39;100889.69;5035215;28;20029;-41
2021/10/02 08:49:48;;;;;;;9.23;2.50;;;;;;;16.80;60.30;100890.88;5034800;28;20029;-41
2021/10/02 08:52:16;;;;;;;10.70;2.88;;;;;;;16.17;61.90;100875.41;5034457;28;20495;-41
2021/10/02 08:54:45;;;;;;;11.18;3.20;;;;;;;15.48;62.57;100885.09;5034405;28;20025;-41
2021/10/02 08:57:31;;;;;;;13.88;3.58;;;;;;;15.49;63.57;100884.03;5033443;28;20045;-40
2021/10/02 08:59:57;;;;;;;7.88;3.05;;;;;;;15.34;63.19;100875.31;5037445;28;20041;-41
2021/10/02 09:02:24;;;;;;;16.15;3.20;;;;;;;15.33;64.33;100871.78;5034455;28;20037;-42
2021/10/02 09:04:50;;;;;;;9.18;3.13;;;;;;;15.54;64.68;100862.53;5032930;28;20030;-41
2021/10/02 09:07:19;;;;;;;11.85;2.90;;;;;;;15.62;63.27;100857.94;5032859;28;20528;-41
2021/10/02 09:09:45;;;;;;;6.03;2.65;;;;;;;15.71;61.57;100862.06;5034535;28;20451;-41
2021/10/02 09:12:11;;;;;;;12.27;2.28;;;;;;;15.17;62.64;100866.00;5034058;28;20112;-42
2021/10/02 09:14:36;;;;;;;9.88;2.97;;;;;;;14.60;64.45;100861.00;5033442;28;20052;-41
2021/10/02 09:17:03;;;;;;;12.25;2.83;;;;;;;14.28;66.08;100868.88;5034150;28;20032;-42
2021/10/02 09:19:28;;;;;;;11.55;2.33;;;;;;;14.21;67.62;100864.47;5033941;28;20040;-42
2021/10/02 09:22:01;;;;;;;6.47;2.13;;;;;;;14.15;67.14;100870.72;5034320;28;20025;-41
2021/10/02 09:24:35;;;;;;;11.15;3.22;;;;;;;14.10;67.60;100856.97;5033905;28;20057;-41
2021/10/02 09:27:02;;;;;;;15.95;3.15;;;;;;;14.13;67.94;100853.84;5032892;28;20037;-41
2021/10/02 09:29:46;;;;;;;10.52;2.92;;;;;;;14.12;67.48;100852.19;5034023;28;20037;-42
2021/10/02 09:32:15;;;;;;;12.18;3.00;;;;;;;13.97;68.17;100839.66;5033894;28;20029;-43
2021/10/02 09:34:47;;;;;;;13.02;3.33;;;;;;;13.83;69.39;100838.78;5033532;28;20033;-40
2021/10/02 09:37:24;;;;;;;13.38;3.55;;;;;;;13.79;69.52;100832.09;5033596;28;20056;-41
2021/10/02 09:39:51;;;;;;;7.07;3.13;;;;;;;13.82;70.45;100822.75;5033589;28;20600;-41
2021/10/02 09:42:29;;;;;;;11.52;4.50;;;;;;;13.92;71.53;100825.91;5033962;28;20473;-41
2021/10/02 09:44:59;;;;;;;13.88;6.20;;;;;;;13.82;71.37;100826.31;5033392;28;20026;-40
2021/10/02 09:47:25;;;;;;;12.65;6.65;;;;;;;13.82;71.98;100830.88;5033050;28;20033;-41
2021/10/02 09:49:50;;;;;;;18.98;7.50;;;;;;;13.79;72.94;100833.97;5033696;28;20032;-41
2021/10/02 09:52:32;;;;;;;17.10;8.68;;;;;;;13.56;73.09;100821.66;5033022;28;20040;-42
2021/10/02 09:55:00;;;;;;;19.73;8.52;;;;;;;13.58;74.17;100819.53;5031904;28;20516;-41
2021/10/02 09:57:25;;;;;;;18.33;9.73;;;;;;;13.76;74.07;100813.59;5032978;28;20103;-41
2021/10/02 10:00:06;;;;;;;20.08;8.95;;;;;;;13.88;74.16;100815.72;5033208;28;20053;-41
2021/10/02 10:02:37;;;;;;;13.45;9.38;;;;;;;13.98;74.31;100826.94;5013421;28;20038;-43
2021/10/02 10:05:02;;;;;;;19.75;10.77;;;;;;;14.09;74.29;100809.31;5026915;28;20473;-41
2021/10/02 10:07:28;;;;;;;24.55;13.63;;;;;;;13.83;75.71;100798.22;5032486;28;20038;-41
2021/10/02 10:10:05;;;;;;;16.95;11.10;;;;;;;13.61;74.81;100786.72;5032167;28;20112;-42
2021/10/02 10:12:31;;;;;;;24.80;13.65;;;;;;;13.60;76.09;100789.63;5032856;28;20209;-41
2021/10/02 10:14:57;;;;;;;26.02;14.40;;;;;;;13.65;76.83;100791.72;5033118;28;20567;-41
2021/10/02 10:17:22;;;;;;;26.60;14.95;;;;;;;13.66;77.17;100775.28;5032651;28;20026;-42
2021/10/02 10:20:03;;;;;;;27.05;14.43;;;;;;;13.71;76.75;100771.97;5032890;28;20052;-42
2021/10/02 10:22:29;;;;;;;22.58;14.40;;;;;;;13.63;77.34;100761.34;5031776;28;20033;-42
2021/10/02 10:25:01;;;;;;;22.42;13.48;;;;;;;13.66;76.54;100767.16;5032513;28;20117;-42
2021/10/02 10:27:46;;;;;;;22.52;12.48;;;;;;;13.79;76.95;100753.66;5031164;28;20025;-40
2021/10/02 10:30:16;;;;;;;24.52;12.52;;;;;;;13.76;77.15;100756.78;5032657;28;20022;-42
2021/10/02 10:33:04;;;;;;;21.02;13.45;;;;;;;13.95;76.67;100749.72;5032886;28;20511;-41
2021/10/02 10:36:02;;;;;;;23.67;13.65;;;;;;;13.84;76.37;100755.75;5031816;28;20128;-42
2021/10/02 10:38:27;;;;;;;;;;;;;;;13.73;77.22;100762.59;5015709;28;20349;-40
2021/10/02 10:40:53;;;;;;;26.67;12.60;;;;;;;13.77;77.72;100753.06;5012832;28;19909;-40
2021/10/02 10:43:20;;;;;;;29.48;13.27;;;;;;;13.76;77.73;100755.94;5012987;28;20025;-41
2021/10/02 10:45:47;;;;;;;19.33;9.60;;;;;;;13.70;76.97;100730.56;5013019;28;20033;-40
2021/10/02 10:48:13;;;;;;;15.93;9.38;;;;;;;13.74;77.48;100729.09;5024224;28;20045;-41
2021/10/02 10:50:43;;;;;;;23.88;10.00;;;;;;;13.74;77.89;100729.09;5030597;28;20109;-40
2021/10/02 10:53:10;;;;;;;19.60;9.52;;;;;;;13.86;78.00;100718.50;5031078;28;20029;-40
2021/10/02 10:55:51;;;;;;;21.55;9.65;;;;;;;13.97;77.86;100711.66;5032281;28;20033;-41
2021/10/02 10:58:24;;;;;;;14.38;9.50;;;;;;;14.11;77.79;100705.19;5031327;28;20041;-40
2021/10/02 11:00:50;;;;;;;16.73;8.32;;;;;;;14.11;76.71;100694.38;5025340;28;20033;-41
2021/10/02 11:03:43;;;;;;;17.30;7.60;;;;;;;14.25;77.14;100712.28;5031615;28;20030;-40
2021/10/02 11:06:10;;;;;;;15.48;7.95;;;;;;;14.36;76.28;100701.88;5021646;28;20443;-40
2021/10/02 11:09:03;;;;;;;14.25;7.55;;;;;;;14.27;77.08;100702.09;5030512;28;20400;-41
2021/10/02 11:11:44;;;;;;;17.92;7.10;;;;;;;14.36;76.37;100697.28;5031520;28;20048;-41
2021/10/02 11:14:10;;;;;;;15.80;5.55;;;;;;;14.42;74.74;100690.19;5030499;28;20035;-41
2021/10/02 11:16:40;;;;;;;18.85;5.07;;;;;;;14.47;75.33;100691.22;5031522;28;20022;-41
2021/10/02 11:19:32;;;;;;;12.98;4.57;;;;;;;14.47;74.89;100696.63;5031428;28;20037;-41
2021/10/02 11:22:30;;;;;;;11.10;3.97;;;;;;;14.28;74.47;100679.38;5029594;28;20388;-41
2021/10/02 11:24:55;;;;;;;16.45;4.20;;;;;;;14.32;73.55;100668.94;5054776;28;20033;-42
2021/10/02 11:27:22;;;;;;;11.68;3.95;;;;;;;14.37;73.67;100668.31;5049522;28;20388;-42
2021/10/02 11:29:48;;;;;;;11.23;4.05;;;;;;;14.47;74.17;100668.72;5041446;28;20377;-41
2021/10/02 11:32:31;;;;;;;14.77;4.00;;;;;;;14.54;74.27;100658.75;5033319;28;20022;-41
2021/10/02 11:35:19;;;;;;;9.57;3.85;;;;;;;14.50;73.05;100643.91;5024576;28;20516;-40
2021/10/02 11:37:47;;;;;;;10.02;4.50;;;;;;;14.45;73.42;100641.00;5034053;28;20032;-41
2021/10/02 11:40:42;;;;;;;;;;;;;;;14.53;73.72;100638.09;5030816;28;20061;-41
2021/10/02 11:43:17;;;;;;;11.68;3.55;;;;;;;14.52;73.05;100617.47;5035205;28;19920;-41
2021/10/02 11:45:45;;;;;;;9.63;3.40;;;;;;;14.57;73.43;100614.16;5032236;28;20063;-41
2021/10/02 11:48:30;;;;;;;13.52;4.25;;;;;;;14.69;73.57;100602.44;5035794;28;20395;-41
2021/10/02 11:51:12;;;;;;;13.70;4.07;;;;;;;14.79;72.16;100604.66;5034573;28;20095;-41
2021/10/02 11:53:45;;;;;;;11.45;4.00;;;;;;;14.67;72.75;100590.97;5033113;28;20113;-41
2021/10/02 11:56:13;;;;;;;9.65;2.85;;;;;;;14.84;71.98;100590.47;5031036;28;20021;-41
2021/10/02 11:58:42;;;;;;;11.02;3.72;;;;;;;14.95;72.39;100581.66;5035442;28;20028;-41
2021/10/02 12:01:15;;;;;;;11.73;3.63;;;;;;;14.93;71.65;100567.53;5035406;28;20017;-41
2021/10/02 12:03:40;;;;;;;11.88;3.75;;;;;;;14.99;71.86;100572.06;5034376;28;20079;-41
2021/10/02 12:06:06;;;;;;;21.77;4.80;;;;;;;14.96;71.35;100564.38;5032548;28;20054;-40
2021/10/02 12:08:32;;;;;;;10.48;4.07;;;;;;;14.80;72.37;100563.00;5032267;28;20047;-42
2021/10/02 12:11:02;;;;;;;9.82;4.25;;;;;;;14.77;72.52;100546.34;5033262;28;20036;-42
2021/10/02 12:13:32;;;;;;;11.82;4.10;;;;;;;14.77;73.90;100539.06;5033844;28;20526;-41
2021/10/02 12:16:01;;;;;;;13.40;4.20;;;;;;;14.59;75.55;100526.22;5035131;28;20490;-41
2021/10/02 12:18:50;;;;;;;20.23;4.63;;;;;;;14.50;76.01;100519.34;5050860;28;20087;-40